Weather at George Bush Intercontinental Houston Airport

Public forecast

Using degrees Fahrenheit for public forecast. Weather courtesy of forecast.io.

Current aviation weather report (METAR) for George Bush Intercontinental Houston Airport

Report is more than 2 hours old.

Retrieved 2021/03/04 09:53 UTC (2 hours ago):

KIAH 040953Z 00000KT 10SM FEW250 06/03 A3015 RMK AO2 SLP210 T00560033

Aviation forecast (TAF) for George Bush Intercontinental Houston Airport

Retrieved 2021/03/04 06:22 UTC (6 hours ago):

TAF KIAH 040520Z 0406/0512 VRB03KT P6SM FEW250 FM041600 14008KT P6SM SCT150 FM050900 12004KT P6SM SCT015 BKN050